createdAt,value
2019-04-27T00:01:28.444Z,5.12
2019-04-27T00:04:04.915Z,4.87
2019-04-27T00:06:46.441Z,5.12
2019-04-27T00:09:28.707Z,5.90
2019-04-27T00:12:03.482Z,5.33
2019-04-27T00:14:33.007Z,5.55
2019-04-27T00:17:03.924Z,5.92
2019-04-27T00:19:43.710Z,6.25
2019-04-27T00:22:29.997Z,6.00
2019-04-27T00:24:58.854Z,6.58
2019-04-27T00:27:27.770Z,6.87
2019-04-27T00:29:56.696Z,6.33
2019-04-27T00:32:25.619Z,8.30
2019-04-27T00:34:54.483Z,7.40
2019-04-27T00:37:24.979Z,7.45
2019-04-27T00:39:58.404Z,7.97
2019-04-27T00:42:27.319Z,8.45
2019-04-27T00:44:56.239Z,7.67
2019-04-27T00:47:25.105Z,8.03
2019-04-27T00:49:55.016Z,7.70
2019-04-27T00:52:24.155Z,8.00
2019-04-27T00:54:53.936Z,8.05
2019-04-27T00:57:38.216Z,9.20
2019-04-27T01:00:23.791Z,8.10
2019-04-27T01:03:00.408Z,9.10
2019-04-27T01:05:30.607Z,8.83
2019-04-27T01:07:59.711Z,9.13
2019-04-27T01:10:28.579Z,8.58
2019-04-27T01:12:57.435Z,8.70
2019-04-27T01:15:26.295Z,8.40
2019-04-27T01:18:10.518Z,7.83
2019-04-27T01:20:25.719Z,8.40
2019-04-27T01:22:54.587Z,8.63
2019-04-27T01:25:25.067Z,8.70
2019-04-27T01:27:55.555Z,7.97
2019-04-27T01:30:42.564Z,9.33
2019-04-27T01:33:11.488Z,8.68
2019-04-27T01:35:40.651Z,9.23
2019-04-27T01:38:09.505Z,9.30
2019-04-27T01:40:38.710Z,9.20
2019-04-27T01:43:09.141Z,9.43
2019-04-27T01:45:39.110Z,8.30
2019-04-27T01:48:20.882Z,9.05
2019-04-27T01:50:39.195Z,8.75
2019-04-27T01:53:09.100Z,9.20
2019-04-27T01:55:40.536Z,8.95
2019-04-27T01:58:10.953Z,9.50
2019-04-27T02:00:42.555Z,9.20
2019-04-27T02:03:13.143Z,9.58
2019-04-27T02:05:46.832Z,11.12
2019-04-27T02:08:15.700Z,11.00
2019-04-27T02:10:44.551Z,11.63
2019-04-27T02:13:13.486Z,11.15
2019-04-27T02:15:42.595Z,12.30
2019-04-27T02:18:11.458Z,10.80
2019-04-27T02:20:40.311Z,10.32
2019-04-27T02:23:09.279Z,9.70
2019-04-27T02:25:39.655Z,9.35
2019-04-27T02:28:27.247Z,8.68
2019-04-27T02:31:01.860Z,9.25
2019-04-27T02:33:32.640Z,8.75
2019-04-27T02:36:01.537Z,9.53
2019-04-27T02:38:30.715Z,11.20
2019-04-27T02:41:00.439Z,11.80
2019-04-27T02:43:46.216Z,13.05
2019-04-27T02:46:15.403Z,12.75
2019-04-27T02:48:55.345Z,14.53
2019-04-27T02:51:16.469Z,14.40
2019-04-27T02:53:55.882Z,15.48
2019-04-27T02:56:25.161Z,15.65
2019-04-27T02:58:54.090Z,15.30
2019-04-27T03:01:24.659Z,14.38
2019-04-27T03:03:53.848Z,13.03
2019-04-27T03:06:22.793Z,13.03
2019-04-27T03:08:54.074Z,12.75
2019-04-27T03:11:23.426Z,13.22
2019-04-27T03:14:28.415Z,13.58
2019-04-27T03:16:49.619Z,13.75
2019-04-27T03:19:39.822Z,13.20
2019-04-27T03:22:16.446Z,12.55
2019-04-27T03:25:03.501Z,12.88
2019-04-27T03:27:46.045Z,12.98
2019-04-27T03:30:15.721Z,13.20
2019-04-27T03:32:44.635Z,13.55
2019-04-27T03:35:13.895Z,13.30
2019-04-27T03:37:44.019Z,14.07
2019-04-27T03:40:12.957Z,15.15
2019-04-27T03:42:43.517Z,14.75
2019-04-27T03:45:12.462Z,14.40
2019-04-27T03:47:41.304Z,13.70
2019-04-27T03:50:12.302Z,14.15
2019-04-27T03:52:59.937Z,14.47
2019-04-27T03:55:33.409Z,15.65
2019-04-27T03:58:21.637Z,15.67
2019-04-27T04:00:52.452Z,16.17
2019-04-27T04:03:21.516Z,17.75
2019-04-27T04:05:52.027Z,17.67
2019-04-27T04:08:21.065Z,17.50
2019-04-27T04:10:51.575Z,18.85
2019-04-27T04:13:22.837Z,18.48
2019-04-27T04:16:00.279Z,19.98
2019-04-27T04:18:31.834Z,18.17
2019-04-27T04:21:00.880Z,17.77
2019-04-27T04:23:30.082Z,15.03
2019-04-27T04:25:59.762Z,15.40
2019-04-27T04:28:29.619Z,13.90
2019-04-27T04:31:00.478Z,13.93
2019-04-27T04:33:30.398Z,12.58
2019-04-27T04:35:59.823Z,12.37
2019-04-27T04:38:30.487Z,12.40
2019-04-27T04:41:01.244Z,12.37
2019-04-27T04:43:39.706Z,14.35
2019-04-27T04:46:29.640Z,15.13
2019-04-27T04:49:00.032Z,19.80
2019-04-27T04:51:30.304Z,22.65
2019-04-27T04:53:59.941Z,24.23
2019-04-27T04:56:29.276Z,24.25
2019-04-27T04:59:00.055Z,31.68
2019-04-27T05:01:29.924Z,27.45
2019-04-27T05:03:59.092Z,36.75
2019-04-27T05:06:29.213Z,38.28
2019-04-27T05:08:59.526Z,35.38
2019-04-27T05:11:29.773Z,41.25
2019-04-27T05:13:59.382Z,38.15
2019-04-27T05:16:29.327Z,37.60
2019-04-27T05:18:59.389Z,35.60
2019-04-27T05:21:31.327Z,37.45
2019-04-27T05:24:00.725Z,36.15
2019-04-27T05:26:29.792Z,32.58
2019-04-27T05:28:59.268Z,32.10
2019-04-27T05:31:29.402Z,30.97
2019-04-27T05:33:59.354Z,27.45
2019-04-27T05:36:29.667Z,25.05
2019-04-27T05:38:59.774Z,23.10
2019-04-27T05:41:31.220Z,21.20
2019-04-27T05:44:03.203Z,20.12
2019-04-27T05:46:52.795Z,19.32
2019-04-27T05:49:41.173Z,17.02
2019-04-27T05:52:14.596Z,17.95
2019-04-27T05:54:40.991Z,16.20
2019-04-27T05:57:09.850Z,16.20
2019-04-27T05:59:39.809Z,15.55
2019-04-27T06:02:09.409Z,14.53
2019-04-27T06:04:39.051Z,14.68
2019-04-27T06:07:09.247Z,13.20
2019-04-27T06:09:39.169Z,15.10
2019-04-27T06:12:08.986Z,15.08
2019-04-27T06:14:39.334Z,12.58
2019-04-27T06:17:09.531Z,12.93
2019-04-27T06:19:39.142Z,12.88
2019-04-27T06:22:09.612Z,11.83
2019-04-27T06:24:39.732Z,12.23
2019-04-27T06:27:09.393Z,12.40
2019-04-27T06:29:39.216Z,12.25
2019-04-27T06:32:10.758Z,11.33
2019-04-27T06:34:39.579Z,11.08
2019-04-27T06:37:09.558Z,11.10
2019-04-27T06:39:38.725Z,9.75
2019-04-27T06:42:16.735Z,6.28
2019-04-27T06:44:39.486Z,7.15
2019-04-27T06:47:09.094Z,7.92
2019-04-27T06:49:39.588Z,6.08
2019-04-27T06:52:08.732Z,7.15
2019-04-27T06:54:38.947Z,6.42
2019-04-27T06:57:09.195Z,6.37
2019-04-27T06:59:39.830Z,6.10
2019-04-27T07:02:08.991Z,6.08
2019-04-27T07:04:39.113Z,5.15
2019-04-27T07:07:09.797Z,5.72
2019-04-27T07:09:39.285Z,6.37
2019-04-27T07:12:08.997Z,5.75
2019-04-27T07:14:51.985Z,6.50
2019-04-27T07:17:08.953Z,6.30
2019-04-27T07:19:39.504Z,6.40
2019-04-27T07:22:09.088Z,6.25
2019-04-27T07:24:40.584Z,6.28
2019-04-27T07:27:09.586Z,6.30
2019-04-27T07:29:40.294Z,6.15
2019-04-27T07:32:09.343Z,6.62
2019-04-27T07:34:38.774Z,6.62
2019-04-27T07:37:09.732Z,6.28
2019-04-27T07:39:39.097Z,6.58
2019-04-27T07:42:09.232Z,6.53
2019-04-27T07:44:42.435Z,6.87
2019-04-27T07:47:15.863Z,7.40
2019-04-27T07:49:45.919Z,9.60
2019-04-27T07:52:14.775Z,9.55
2019-04-27T07:54:43.938Z,9.35
2019-04-27T07:57:12.800Z,9.93
2019-04-27T07:59:42.261Z,10.68
2019-04-27T08:02:11.237Z,10.82
2019-04-27T08:04:40.164Z,9.88
2019-04-27T08:07:09.228Z,11.45
2019-04-27T08:09:39.757Z,10.85
2019-04-27T08:12:10.690Z,11.90
2019-04-27T08:14:39.321Z,12.05
2019-04-27T08:17:09.781Z,11.60
2019-04-27T08:19:39.576Z,11.80
2019-04-27T08:22:09.690Z,11.63
2019-04-27T08:24:39.565Z,10.70
2019-04-27T08:27:13.180Z,8.95
2019-04-27T08:29:46.375Z,8.63
2019-04-27T08:32:16.876Z,9.50
2019-04-27T08:34:45.743Z,9.10
2019-04-27T08:37:14.588Z,9.15
2019-04-27T08:39:43.459Z,9.58
2019-04-27T08:42:12.319Z,10.10
2019-04-27T08:44:41.577Z,9.78
2019-04-27T08:47:10.424Z,9.18
2019-04-27T08:49:39.507Z,9.95
2019-04-27T08:52:09.423Z,9.90
2019-04-27T08:54:39.401Z,9.43
2019-04-27T08:57:09.692Z,9.33
2019-04-27T08:59:39.285Z,9.83
2019-04-27T09:02:08.858Z,9.80
2019-04-27T09:04:39.446Z,9.93
2019-04-27T09:07:26.519Z,9.30
2019-04-27T09:09:57.003Z,10.05
2019-04-27T09:12:33.897Z,9.88
2019-04-27T09:15:13.820Z,8.65
2019-04-27T09:17:44.315Z,8.63
2019-04-27T09:20:14.879Z,9.28
2019-04-27T09:22:43.814Z,9.55
2019-04-27T09:25:12.760Z,9.50
2019-04-27T09:27:41.595Z,7.67
2019-04-27T09:30:10.693Z,8.70
2019-04-27T09:32:40.805Z,7.60
2019-04-27T09:35:09.927Z,7.58
2019-04-27T09:37:38.775Z,7.28
2019-04-27T09:40:08.197Z,7.03
2019-04-27T09:42:39.270Z,5.97
2019-04-27T09:45:08.195Z,6.12
2019-04-27T09:47:39.143Z,6.33
2019-04-27T09:50:07.835Z,6.03
2019-04-27T09:52:36.879Z,6.33
2019-04-27T09:55:06.558Z,5.92
2019-04-27T09:57:38.283Z,5.22
2019-04-27T10:00:11.439Z,5.15
2019-04-27T10:02:40.696Z,4.87
2019-04-27T10:05:10.215Z,4.55
2019-04-27T10:07:39.071Z,5.70
2019-04-27T10:10:08.096Z,5.95
2019-04-27T10:12:37.034Z,4.70
2019-04-27T10:15:06.477Z,4.37
2019-04-27T10:17:35.331Z,4.60
2019-04-27T10:20:06.044Z,3.95
2019-04-27T10:22:41.268Z,4.60
2019-04-27T10:25:07.171Z,4.50
2019-04-27T10:27:36.027Z,4.40
2019-04-27T10:30:09.159Z,4.40
2019-04-27T10:32:38.988Z,3.90
2019-04-27T10:35:07.924Z,4.40
2019-04-27T10:37:36.964Z,5.05
2019-04-27T10:40:06.300Z,3.75
2019-04-27T10:42:35.943Z,4.03
2019-04-27T10:45:06.403Z,4.33
2019-04-27T10:47:36.052Z,3.95
2019-04-27T10:50:05.955Z,4.65
2019-04-27T10:52:34.886Z,5.00
2019-04-27T10:55:05.843Z,4.87
2019-04-27T10:57:34.944Z,5.20
2019-04-27T11:00:06.710Z,6.03
2019-04-27T11:02:36.583Z,6.58
2019-04-27T11:05:17.152Z,7.15
2019-04-27T11:07:46.380Z,7.58
2019-04-27T11:10:16.404Z,7.42
2019-04-27T11:12:46.183Z,8.08
2019-04-27T11:15:16.354Z,8.50
2019-04-27T11:17:47.530Z,7.97
2019-04-27T11:20:16.682Z,7.60
2019-04-27T11:22:46.480Z,7.58
2019-04-27T11:25:16.415Z,6.92
2019-04-27T11:27:45.528Z,6.60
2019-04-27T11:30:15.684Z,6.70
2019-04-27T11:32:44.720Z,6.67
2019-04-27T11:35:22.622Z,7.70
2019-04-27T11:37:53.115Z,5.83
2019-04-27T11:40:22.791Z,6.67
2019-04-27T11:42:51.642Z,5.95
2019-04-27T11:45:20.490Z,6.60
2019-04-27T11:47:49.367Z,6.50
2019-04-27T11:50:18.567Z,6.60
2019-04-27T11:52:47.485Z,6.92
2019-04-27T11:55:16.620Z,7.45
2019-04-27T11:57:47.000Z,6.45
2019-04-27T12:00:18.421Z,6.65
2019-04-27T12:02:47.267Z,4.50
2019-04-27T12:05:16.824Z,4.90
2019-04-27T12:07:47.741Z,4.67
2019-04-27T12:10:16.515Z,4.20
2019-04-27T12:12:46.388Z,5.40
2019-04-27T12:15:16.096Z,4.80
2019-04-27T12:17:46.040Z,4.55
2019-04-27T12:20:17.533Z,3.22
2019-04-27T12:22:45.911Z,3.58
2019-04-27T12:25:14.929Z,2.55
2019-04-27T12:28:01.732Z,2.50
2019-04-27T12:30:32.223Z,1.85
2019-04-27T12:33:01.079Z,1.62
2019-04-27T12:35:29.926Z,1.40
2019-04-27T12:37:58.787Z,1.25
2019-04-27T12:40:27.643Z,1.40
2019-04-27T12:42:56.493Z,1.40
2019-04-27T12:45:26.705Z,1.07
2019-04-27T12:47:56.636Z,1.32
2019-04-27T12:50:26.151Z,1.12
2019-04-27T12:52:56.783Z,1.00
2019-04-27T12:55:43.792Z,1.17
2019-04-27T12:58:17.457Z,1.30
2019-04-27T13:01:03.553Z,1.60
2019-04-27T13:03:32.411Z,1.30
2019-04-27T13:06:01.262Z,1.70
2019-04-27T13:08:30.114Z,1.90
2019-04-27T13:10:58.971Z,1.87
2019-04-27T13:13:27.822Z,2.70
2019-04-27T13:15:56.678Z,1.90
2019-04-27T13:18:25.886Z,1.37
2019-04-27T13:20:54.864Z,1.00
2019-04-27T13:23:23.711Z,0.98
2019-04-27T13:25:52.563Z,1.00
2019-04-27T13:28:21.491Z,1.07
2019-04-27T13:30:50.338Z,1.17
2019-04-27T13:33:20.257Z,1.00
2019-04-27T13:35:49.103Z,1.20
2019-04-27T13:38:19.027Z,1.30
2019-04-27T13:40:49.515Z,1.10
2019-04-27T13:43:22.827Z,1.20
2019-04-27T13:46:11.277Z,1.53
2019-04-27T13:48:56.701Z,1.65
2019-04-27T13:51:42.518Z,1.85
2019-04-27T13:54:18.693Z,1.25
2019-04-27T13:56:41.998Z,1.32
2019-04-27T13:59:12.782Z,1.45
2019-04-27T14:01:41.767Z,1.50
2019-04-27T14:04:10.619Z,1.50
2019-04-27T14:06:41.776Z,1.10
2019-04-27T14:09:12.562Z,1.70
2019-04-27T14:11:42.270Z,1.57
2019-04-27T14:14:11.110Z,1.22
2019-04-27T14:16:39.973Z,1.90
2019-04-27T14:19:10.944Z,1.37
2019-04-27T14:21:39.376Z,1.45
2019-04-27T14:24:08.244Z,1.98
2019-04-27T14:26:38.608Z,1.80
2019-04-27T14:29:08.734Z,1.65
2019-04-27T14:31:39.612Z,1.80
2019-04-27T14:34:09.169Z,1.95
2019-04-27T14:36:40.507Z,1.95
2019-04-27T14:39:10.456Z,1.95
2019-04-27T14:41:40.932Z,2.20
2019-04-27T14:44:10.875Z,2.27
2019-04-27T14:46:39.709Z,2.20
2019-04-27T14:49:08.561Z,2.00
2019-04-27T14:51:39.911Z,1.95
2019-04-27T14:54:09.255Z,2.10
2019-04-27T14:56:38.775Z,1.80
2019-04-27T14:59:07.829Z,2.20
2019-04-27T15:01:39.445Z,1.60
2019-04-27T15:04:07.886Z,1.50
2019-04-27T15:06:36.812Z,2.22
2019-04-27T15:09:06.391Z,1.90
2019-04-27T15:11:35.313Z,2.15
2019-04-27T15:14:04.493Z,1.95
2019-04-27T15:16:33.469Z,2.12
2019-04-27T15:19:03.960Z,2.10
2019-04-27T15:21:38.354Z,1.95
2019-04-27T15:24:09.385Z,1.90
2019-04-27T15:26:33.919Z,1.80
2019-04-27T15:29:04.504Z,1.92
2019-04-27T15:31:34.998Z,1.72
2019-04-27T15:34:23.327Z,2.10
2019-04-27T15:36:59.618Z,1.87
2019-04-27T15:39:30.578Z,2.30
2019-04-27T15:42:08.213Z,1.92
2019-04-27T15:44:36.527Z,2.10
2019-04-27T15:47:10.320Z,2.15
2019-04-27T15:49:35.678Z,2.50
2019-04-27T15:52:04.718Z,2.50
2019-04-27T15:54:33.667Z,2.40
2019-04-27T15:57:05.670Z,2.20
2019-04-27T15:59:39.514Z,2.35
2019-04-27T16:02:05.525Z,2.62
2019-04-27T16:04:34.955Z,2.50
2019-04-27T16:07:03.881Z,2.85
2019-04-27T16:09:32.981Z,2.40
2019-04-27T16:12:09.880Z,2.17
2019-04-27T16:14:32.387Z,2.40
2019-04-27T16:17:03.028Z,2.80
2019-04-27T16:19:31.783Z,2.30
2019-04-27T16:22:00.643Z,2.08
2019-04-27T16:24:29.491Z,2.20
2019-04-27T16:26:59.085Z,2.47
2019-04-27T16:29:31.501Z,2.52
2019-04-27T16:32:02.831Z,1.42
2019-04-27T16:34:33.119Z,1.60
2019-04-27T16:36:59.871Z,1.70
2019-04-27T16:39:28.766Z,1.75
2019-04-27T16:41:58.699Z,1.37
2019-04-27T16:44:27.727Z,1.20
2019-04-27T16:46:58.254Z,1.52
2019-04-27T16:49:28.912Z,1.52
2019-04-27T16:51:59.050Z,1.35
2019-04-27T16:54:28.314Z,1.77
2019-04-27T16:57:03.286Z,1.67
2019-04-27T16:59:40.668Z,1.30
2019-04-27T17:01:58.686Z,1.60
2019-04-27T17:04:29.092Z,1.40
2019-04-27T17:06:59.087Z,1.37
2019-04-27T17:09:29.185Z,1.95
2019-04-27T17:11:59.286Z,1.57
2019-04-27T17:14:35.209Z,2.25
2019-04-27T17:17:10.670Z,1.72
2019-04-27T17:19:43.970Z,2.00
2019-04-27T17:22:14.727Z,1.72
2019-04-27T17:24:47.377Z,1.80
2019-04-27T17:27:20.732Z,2.02
2019-04-27T17:29:50.081Z,2.00
2019-04-27T17:32:25.528Z,2.27
2019-04-27T17:34:55.542Z,2.05
2019-04-27T17:37:25.168Z,1.80
2019-04-27T17:39:58.050Z,2.20
2019-04-27T17:42:27.517Z,2.33
2019-04-27T17:44:57.671Z,2.20
2019-04-27T17:47:26.872Z,2.37
2019-04-27T17:49:58.278Z,2.60
2019-04-27T17:52:27.008Z,3.33
2019-04-27T17:54:55.858Z,2.92
2019-04-27T17:57:26.644Z,2.65
2019-04-27T18:00:01.562Z,2.40
2019-04-27T18:02:26.967Z,2.45
2019-04-27T18:04:55.819Z,2.17
2019-04-27T18:07:24.747Z,2.10
2019-04-27T18:09:53.607Z,2.33
2019-04-27T18:12:22.459Z,2.17
2019-04-27T18:14:51.323Z,2.27
2019-04-27T18:17:21.147Z,2.55
2019-04-27T18:19:51.919Z,3.35
2019-04-27T18:22:21.016Z,2.40
2019-04-27T18:25:03.335Z,2.30
2019-04-27T18:27:48.215Z,2.30
2019-04-27T18:30:22.828Z,2.27
2019-04-27T18:32:51.746Z,2.67
2019-04-27T18:35:26.176Z,2.87
2019-04-27T18:37:53.541Z,2.83
2019-04-27T18:40:24.227Z,3.37
2019-04-27T18:42:52.388Z,3.52
2019-04-27T18:45:21.239Z,3.65
2019-04-27T18:47:52.027Z,3.30
2019-04-27T18:50:28.579Z,2.85
2019-04-27T18:53:02.007Z,2.60
2019-04-27T18:55:30.855Z,2.20
2019-04-27T18:58:02.068Z,2.02
2019-04-27T19:00:30.261Z,2.10
2019-04-27T19:02:59.185Z,2.40
2019-04-27T19:05:39.966Z,2.20
2019-04-27T19:07:58.813Z,2.17
2019-04-27T19:10:28.201Z,2.50
2019-04-27T19:12:58.523Z,3.12
2019-04-27T19:15:29.443Z,3.10
2019-04-27T19:17:58.299Z,2.35
2019-04-27T19:20:28.822Z,1.90
2019-04-27T19:22:59.743Z,2.15
2019-04-27T19:25:30.027Z,1.80
2019-04-27T19:28:08.304Z,1.87
2019-04-27T19:30:41.888Z,2.45
2019-04-27T19:33:10.738Z,1.67
2019-04-27T19:35:39.595Z,1.57
2019-04-27T19:38:08.470Z,2.40
2019-04-27T19:40:37.992Z,3.58
2019-04-27T19:43:06.977Z,3.50
2019-04-27T19:45:35.817Z,2.62
2019-04-27T19:48:04.671Z,2.25
2019-04-27T19:50:33.523Z,1.80
2019-04-27T19:53:02.371Z,1.95
2019-04-27T19:55:31.224Z,1.70
2019-04-27T19:58:01.559Z,1.65
2019-04-27T20:00:48.394Z,1.90
2019-04-27T20:03:19.402Z,1.80
2019-04-27T20:05:49.451Z,2.00
2019-04-27T20:08:19.947Z,2.00
2019-04-27T20:10:48.795Z,1.92
2019-04-27T20:13:17.981Z,1.75
2019-04-27T20:15:46.820Z,2.10
2019-04-27T20:18:15.975Z,2.25
2019-04-27T20:20:44.815Z,2.50
2019-04-27T20:23:14.076Z,2.08
2019-04-27T20:25:42.932Z,1.72
2019-04-27T20:28:12.106Z,1.47
2019-04-27T20:30:41.664Z,1.77
2019-04-27T20:33:11.028Z,2.10
2019-04-27T20:35:40.758Z,1.72
2019-04-27T20:38:12.750Z,1.90
2019-04-27T20:40:41.590Z,1.77
2019-04-27T20:43:10.512Z,2.00
2019-04-27T20:45:41.241Z,1.85
2019-04-27T20:48:11.192Z,2.22
2019-04-27T20:50:41.184Z,2.15
2019-04-27T20:53:14.644Z,4.97
2019-04-27T20:55:43.503Z,5.17
2019-04-27T20:58:12.724Z,4.05
2019-04-27T21:00:41.885Z,2.65
2019-04-27T21:03:12.478Z,3.17
2019-04-27T21:05:42.972Z,2.70
2019-04-27T21:08:13.815Z,3.15
2019-04-27T21:10:42.687Z,2.83
2019-04-27T21:13:11.557Z,2.60
2019-04-27T21:15:41.910Z,2.65
2019-04-27T21:18:11.907Z,2.85
2019-04-27T21:20:41.296Z,2.50
2019-04-27T21:23:12.039Z,2.90
2019-04-27T21:25:42.128Z,2.40
2019-04-27T21:28:16.622Z,2.80
2019-04-27T21:30:42.059Z,2.72
2019-04-27T21:33:11.442Z,2.98
2019-04-27T21:35:40.546Z,2.90
2019-04-27T21:38:09.394Z,2.50
2019-04-27T21:40:38.249Z,2.83
2019-04-27T21:43:07.121Z,2.55
2019-04-27T21:45:36.012Z,2.90
2019-04-27T21:48:04.859Z,2.92
2019-04-27T21:50:34.148Z,2.95
2019-04-27T21:53:04.626Z,2.85
2019-04-27T21:55:35.147Z,2.67
2019-04-27T21:58:03.983Z,3.50
2019-04-27T22:00:38.580Z,2.98
2019-04-27T22:03:16.635Z,2.70
2019-04-27T22:05:45.495Z,2.90
2019-04-27T22:08:14.487Z,2.92
2019-04-27T22:10:43.335Z,2.70
2019-04-27T22:13:12.188Z,3.00
2019-04-27T22:15:41.638Z,3.25
2019-04-27T22:18:11.204Z,2.90
2019-04-27T22:20:42.453Z,2.87
2019-04-27T22:23:12.712Z,2.70
2019-04-27T22:25:42.199Z,3.05
2019-04-27T22:28:11.741Z,2.80
2019-04-27T22:30:40.762Z,3.52
2019-04-27T22:33:11.284Z,3.30
2019-04-27T22:35:41.528Z,3.45
2019-04-27T22:38:11.948Z,3.60
2019-04-27T22:40:57.639Z,3.37
2019-04-27T22:43:43.181Z,3.45
2019-04-27T22:46:22.365Z,3.10
2019-04-27T22:48:51.684Z,2.80
2019-04-27T22:51:21.100Z,3.87
2019-04-27T22:53:51.241Z,3.12
2019-04-27T22:56:22.234Z,3.08
2019-04-27T22:59:03.218Z,3.98
2019-04-27T23:01:31.520Z,3.60
2019-04-27T23:04:02.105Z,3.47
2019-04-27T23:06:32.763Z,3.55
2019-04-27T23:09:01.772Z,3.02
2019-04-27T23:11:32.199Z,3.33
2019-04-27T23:14:01.180Z,3.33
2019-04-27T23:16:31.734Z,3.27
2019-04-27T23:19:01.828Z,3.35
2019-04-27T23:21:31.339Z,3.67
2019-04-27T23:24:01.868Z,3.08
2019-04-27T23:26:31.301Z,3.10
2019-04-27T23:29:12.315Z,3.10
2019-04-27T23:31:32.527Z,3.75
2019-04-27T23:34:01.866Z,3.50
2019-04-27T23:36:31.741Z,3.12
2019-04-27T23:39:00.989Z,4.17
2019-04-27T23:41:31.604Z,3.05
2019-04-27T23:44:00.688Z,2.87
2019-04-27T23:46:31.159Z,3.37
2019-04-27T23:49:01.530Z,3.35
2019-04-27T23:51:50.446Z,2.77
2019-04-27T23:54:19.383Z,3.27
2019-04-27T23:56:48.247Z,3.50
2019-04-27T23:59:24.694Z,3.05
